Time;durP1;ratioP1;P1;durP2;ratioP2;P2;SDS_P1;SDS_P2;PMS_P1;PMS_P2;Temp;Humidity;BMP_temperature;BMP_pressure;BME280_temperature;BME280_humidity;BME280_pressure;Samples;Min_cycle;Max_cycle;Signal;HPM_P1;HPM_P2
2021/04/11 00:01:14;;;;;;;14.57;13.97;;;9.90;99.90;;;;;;5022842;28;20472;-76
2021/04/11 00:03:41;;;;;;;15.40;14.70;;;9.90;99.90;;;;;;5021215;28;20502;-76
2021/04/11 00:06:08;;;;;;;15.07;14.37;;;9.90;99.90;;;;;;5020777;28;20469;-75
2021/04/11 00:08:35;;;;;;;15.17;14.47;;;9.90;99.90;;;;;;5020268;28;20472;-78
2021/04/11 00:11:03;;;;;;;14.97;14.33;;;9.80;99.90;;;;;;5022250;28;20464;-75
2021/04/11 00:13:32;;;;;;;15.60;14.90;;;9.80;99.90;;;;;;5017923;28;20469;-76
2021/04/11 00:15:58;;;;;;;15.13;14.43;;;9.80;99.90;;;;;;5023980;28;20538;-78
2021/04/11 00:18:25;;;;;;;15.10;14.40;;;9.80;99.90;;;;;;5022762;28;21011;-76
2021/04/11 00:20:52;;;;;;;14.73;14.13;;;9.80;99.90;;;;;;5024770;28;20507;-78
2021/04/11 00:23:23;;;;;;;14.40;13.80;;;9.80;99.90;;;;;;5017343;28;20519;-75
2021/04/11 00:25:49;;;;;;;14.43;13.83;;;9.80;99.90;;;;;;5020301;28;20464;-77
2021/04/11 00:28:16;;;;;;;14.80;14.20;;;9.90;99.90;;;;;;5017503;28;20453;-78
2021/04/11 00:30:44;;;;;;;14.10;13.50;;;9.90;99.90;;;;;;5023297;28;20488;-77
2021/04/11 00:33:25;;;;;;;15.13;14.43;;;10.00;99.90;;;;;;5015421;28;20543;-76
2021/04/11 00:35:57;;;;;;;15.20;14.50;;;10.10;99.90;;;;;;5021948;28;20968;-76
2021/04/11 00:38:24;;;;;;;15.60;14.90;;;10.20;99.90;;;;;;5022606;28;20870;-76
2021/04/11 00:40:51;;;;;;;14.87;14.20;;;10.30;99.90;;;;;;5017638;28;20469;-78
2021/04/11 00:43:19;;;;;;;16.20;15.50;;;10.30;99.90;;;;;;5012866;28;20493;-77
2021/04/11 00:45:55;;;;;;;16.50;15.70;;;10.40;99.90;;;;;;5016011;28;20465;-77
2021/04/11 00:48:24;;;;;;;15.67;14.97;;;10.40;99.90;;;;;;5020118;28;20465;-78
2021/04/11 00:50:53;;;;;;;15.23;14.53;;;10.40;99.90;;;;;;5021803;28;20461;-79
2021/04/11 00:53:20;;;;;;;14.43;13.83;;;10.40;99.90;;;;;;5020765;28;20476;-76
2021/04/11 00:55:48;;;;;;;15.03;14.43;;;10.40;99.90;;;;;;5017829;28;20476;-76
2021/04/11 00:58:16;;;;;;;14.63;14.03;;;10.50;99.90;;;;;;5018947;28;20461;-77
2021/04/11 01:00:42;;;;;;;14.27;13.67;;;10.50;99.90;;;;;;5021942;28;20468;-77
2021/04/11 01:03:09;;;;;;;14.70;14.10;;;10.40;99.90;;;;;;5018528;28;20497;-79
2021/04/11 01:05:41;;;;;;;14.20;13.60;;;10.40;99.90;;;;;;5020630;28;20510;-77
2021/04/11 01:08:11;;;;;;;13.60;13.00;;;10.30;99.90;;;;;;5016732;28;20501;-75
2021/04/11 01:10:42;;;;;;;13.63;13.03;;;10.30;99.90;;;;;;5020962;28;20465;-76
2021/04/11 01:13:12;;;;;;;12.80;12.30;;;10.20;99.90;;;;;;5017265;28;20458;-79
2021/04/11 01:15:39;;;;;;;12.80;12.30;;;10.10;99.90;;;;;;5012862;28;20525;-75
2021/04/11 01:18:06;;;;;;;12.87;12.37;;;10.20;99.90;;;;;;5020707;28;20464;-78
2021/04/11 01:20:33;;;;;;;13.90;13.30;;;10.10;99.90;;;;;;5023055;28;20467;-79
2021/04/11 01:23:12;;;;;;;17.10;16.30;;;9.80;99.90;;;;;;5021787;28;20488;-76
2021/04/11 01:25:41;;;;;;;13.60;13.00;;;9.30;99.90;;;;;;5020226;28;20537;-76
2021/04/11 01:28:11;;;;;;;14.50;13.90;;;8.80;99.90;;;;;;5023713;28;20951;-75
2021/04/11 01:30:40;;;;;;;14.13;13.53;;;8.60;99.90;;;;;;5012943;28;20492;-78
2021/04/11 01:33:09;;;;;;;13.63;13.03;;;8.40;99.90;;;;;;5017399;28;20494;-80
2021/04/11 01:35:35;;;;;;;13.50;12.97;;;8.10;99.90;;;;;;5021682;28;20961;-81
2021/04/11 01:38:04;;;;;;;13.00;12.50;;;7.90;99.90;;;;;;5018372;28;20473;-78
2021/04/11 01:40:37;;;;;;;12.87;12.37;;;7.80;99.90;;;;;;5018163;28;20483;-77
2021/04/11 01:43:07;;;;;;;12.73;12.23;;;7.70;99.90;;;;;;5020279;28;20485;-79
2021/04/11 01:45:37;;;;;;;12.27;11.77;;;7.70;99.90;;;;;;5017300;28;20946;-79
2021/04/11 01:48:05;;;;;;;12.60;12.10;;;7.70;99.90;;;;;;5013190;28;20491;-80
2021/04/11 01:50:32;;;;;;;12.90;12.40;;;7.60;99.90;;;;;;5020328;28;21037;-77
2021/04/11 01:52:59;;;;;;;13.47;12.90;;;7.60;99.90;;;;;;5020879;28;20971;-77
2021/04/11 01:55:28;;;;;;;12.97;12.47;;;7.50;99.90;;;;;;5018403;28;20466;-80
2021/04/11 01:57:57;;;;;;;13.00;12.50;;;7.50;99.90;;;;;;5022509;28;20838;-79
2021/04/11 02:00:29;;;;;;;14.00;13.40;;;7.40;99.90;;;;;;5017943;28;20461;-80
2021/04/11 02:02:57;;;;;;;13.20;12.70;;;7.40;99.90;;;;;;5012751;28;20530;-78
2021/04/11 02:05:24;;;;;;;13.73;13.13;;;7.30;99.90;;;;;;5021748;28;20469;-79
2021/04/11 02:07:53;;;;;;;14.00;13.40;;;7.30;99.90;;;;;;5014189;28;20467;-79
2021/04/11 02:10:26;;;;;;;13.07;12.57;;;7.20;99.90;;;;;;5021427;28;20460;-76
2021/04/11 02:12:53;;;;;;;13.33;12.83;;;7.10;99.90;;;;;;5018662;28;20983;-77
2021/04/11 02:15:23;;;;;;;13.83;13.23;;;7.10;99.90;;;;;;5015343;28;20944;-79
2021/04/11 02:17:53;;;;;;;14.10;13.50;;;7.00;99.90;;;;;;5010102;28;20822;-78
2021/04/11 02:20:21;;;;;;;13.67;13.07;;;7.00;99.90;;;;;;5024232;28;20465;-79
2021/04/11 02:22:48;;;;;;;12.90;12.40;;;6.90;99.90;;;;;;5020402;28;20468;-79
2021/04/11 02:25:18;;;;;;;13.40;12.80;;;6.80;99.90;;;;;;5017793;28;20468;-82
2021/04/11 02:27:46;;;;;;;13.20;12.70;;;6.70;99.90;;;;;;5017774;28;20526;-78
2021/04/11 02:30:16;;;;;;;13.27;12.77;;;6.60;99.90;;;;;;5023944;28;21113;-78
2021/04/11 02:32:43;;;;;;;13.27;12.77;;;6.50;99.90;;;;;;5020011;28;20840;-81
2021/04/11 02:35:15;;;;;;;13.07;12.57;;;6.40;99.90;;;;;;5029813;28;20462;-78
2021/04/11 02:37:45;;;;;;;12.67;12.17;;;6.30;99.90;;;;;;5027344;28;20483;-76
2021/04/11 02:40:22;;;;;;;12.70;12.20;;;6.30;99.90;;;;;;5022912;28;21230;-76
2021/04/11 02:42:48;;;;;;;13.13;12.63;;;6.30;99.90;;;;;;5020372;28;20960;-77
2021/04/11 02:45:19;;;;;;;13.00;12.50;;;6.30;99.90;;;;;;5021605;28;20469;-82
2021/04/11 02:47:46;;;;;;;12.93;12.43;;;6.20;99.90;;;;;;5024979;28;20468;-76
2021/04/11 02:50:15;;;;;;;12.97;12.47;;;6.20;99.90;;;;;;5022454;28;20497;-78
2021/04/11 02:52:46;;;;;;;12.20;11.70;;;6.10;99.90;;;;;;5028422;28;20460;-78
2021/04/11 02:55:14;;;;;;;15.17;14.30;;;6.10;99.90;;;;;;5023572;28;20810;-78
2021/04/11 02:57:41;;;;;;;11.67;11.20;;;6.00;99.90;;;;;;5021754;28;21121;-79
2021/04/11 03:00:10;;;;;;;11.17;10.77;;;5.90;99.90;;;;;;5024383;28;20552;-79
2021/04/11 03:02:37;;;;;;;12.50;12.00;;;5.80;99.90;;;;;;5020341;28;20471;-79
2021/04/11 03:05:04;;;;;;;12.10;11.60;;;5.70;99.90;;;;;;5026352;28;20461;-82
2021/04/11 03:07:39;;;;;;;11.43;11.03;;;5.70;99.90;;;;;;5025068;28;20460;-76
2021/04/11 03:10:10;;;;;;;12.23;11.73;;;5.60;99.90;;;;;;5020934;28;20462;-77
2021/04/11 03:12:40;;;;;;;12.10;11.60;;;5.60;99.90;;;;;;5015157;28;20840;-79
2021/04/11 03:15:09;;;;;;;11.57;11.07;;;5.70;99.90;;;;;;5015860;28;20460;-80
2021/04/11 03:17:37;;;;;;;12.23;11.73;;;5.60;99.90;;;;;;5023037;28;20470;-75
2021/04/11 03:20:08;;;;;;;11.30;10.90;;;5.60;99.90;;;;;;5022229;28;20465;-79
2021/04/11 03:22:36;;;;;;;11.73;11.23;;;5.60;99.90;;;;;;5020137;28;20503;-77
2021/04/11 03:25:05;;;;;;;12.20;11.70;;;5.50;99.90;;;;;;5016310;28;20973;-75
2021/04/11 03:27:35;;;;;;;12.57;12.07;;;5.40;99.90;;;;;;5016470;28;20466;-79
2021/04/11 03:30:06;;;;;;;13.20;12.70;;;5.30;99.90;;;;;;5022824;28;20539;-79
2021/04/11 03:32:37;;;;;;;12.97;12.47;;;5.20;99.90;;;;;;5022239;28;20498;-75
2021/04/11 03:35:07;;;;;;;12.67;12.17;;;5.10;99.90;;;;;;5024123;28;20462;-74
2021/04/11 03:37:36;;;;;;;12.60;12.10;;;5.10;99.90;;;;;;5027059;28;20456;-75
2021/04/11 03:40:04;;;;;;;12.63;12.13;;;5.00;99.90;;;;;;5015988;28;20468;-77
2021/04/11 03:42:33;;;;;;;11.83;11.33;;;4.90;99.90;;;;;;5018468;28;20458;-76
2021/04/11 03:45:00;;;;;;;12.00;11.50;;;4.90;99.90;;;;;;5025179;28;20496;-75
2021/04/11 03:47:32;;;;;;;12.30;11.80;;;4.70;99.90;;;;;;5025642;28;20478;-75
2021/04/11 03:50:05;;;;;;;12.23;11.73;;;4.60;99.90;;;;;;5026687;28;20471;-78
2021/04/11 03:52:38;;;;;;;12.37;11.87;;;4.60;99.90;;;;;;5020201;28;20465;-74
2021/04/11 03:55:08;;;;;;;12.00;11.50;;;4.60;99.90;;;;;;5017726;28;20469;-74
2021/04/11 03:57:39;;;;;;;11.33;10.93;;;4.50;99.90;;;;;;5021034;28;20469;-75
2021/04/11 04:00:09;;;;;;;12.23;11.73;;;4.50;99.90;;;;;;5025013;28;20973;-75
2021/04/11 04:02:40;;;;;;;11.50;11.10;;;4.50;99.90;;;;;;5023499;28;20461;-74
2021/04/11 04:05:10;;;;;;;11.93;11.43;;;4.40;99.90;;;;;;5028777;28;20523;-76
2021/04/11 04:07:46;;;;;;;12.00;11.50;;;4.40;99.90;;;;;;5017384;28;20548;-77
2021/04/11 04:10:15;;;;;;;10.90;10.50;;;4.30;99.90;;;;;;5020216;28;20460;-74
2021/04/11 04:13:06;;;;;;;11.47;11.07;;;4.30;99.90;;;;;;5018054;28;20461;-73
2021/04/11 04:15:43;;;;;;;11.27;10.87;;;4.30;99.90;;;;;;5017671;28;20457;-75
2021/04/11 04:18:25;;;;;;;12.10;11.60;;;4.30;99.90;;;;;;5022539;28;20479;-77
2021/04/11 04:20:57;;;;;;;11.50;11.10;;;4.20;99.90;;;;;;5023746;28;20468;-73
2021/04/11 04:23:37;;;;;;;11.00;10.60;;;4.20;99.90;;;;;;5017947;28;20507;-74
2021/04/11 04:26:21;;;;;;;12.20;11.70;;;4.10;99.90;;;;;;5016269;28;20465;-76
2021/04/11 04:28:55;;;;;;;11.63;11.23;;;4.20;99.90;;;;;;5022700;28;20465;-76
2021/04/11 04:31:33;;;;;;;11.07;10.67;;;4.20;99.90;;;;;;5026222;28;20492;-76
2021/04/11 04:34:08;;;;;;;10.90;10.50;;;4.10;99.90;;;;;;5022324;28;20491;-77
2021/04/11 04:36:47;;;;;;;11.80;11.33;;;4.10;99.90;;;;;;5015886;28;21137;-75
2021/04/11 04:39:29;;;;;;;11.70;11.27;;;4.00;99.90;;;;;;5020128;28;20457;-77
2021/04/11 04:42:05;;;;;;;11.30;10.90;;;4.00;99.90;;;;;;5017826;28;20472;-74
2021/04/11 04:44:39;;;;;;;11.57;11.17;;;4.00;99.90;;;;;;5022153;28;20493;-76
2021/04/11 04:47:10;;;;;;;11.33;10.93;;;4.00;99.90;;;;;;5022555;28;20467;-77
2021/04/11 04:49:43;;;;;;;10.83;10.43;;;4.00;99.90;;;;;;5022850;28;20860;-74
2021/04/11 04:52:14;;;;;;;11.50;11.10;;;3.90;99.90;;;;;;5022744;28;20465;-74
2021/04/11 04:54:47;;;;;;;11.60;11.20;;;3.90;99.90;;;;;;5017086;28;20456;-76
2021/04/11 04:57:17;;;;;;;11.20;10.80;;;3.90;99.90;;;;;;5022270;28;20504;-72
2021/04/11 05:00:01;;;;;;;12.00;11.50;;;3.80;99.90;;;;;;5020708;28;20995;-74
2021/04/11 05:02:34;;;;;;;12.40;11.90;;;3.70;99.90;;;;;;5014356;28;20512;-74
2021/04/11 05:05:05;;;;;;;11.33;10.93;;;3.70;99.90;;;;;;5014161;28;20512;-75
2021/04/11 05:07:40;;;;;;;11.13;10.73;;;3.70;99.90;;;;;;5020272;28;20516;-73
2021/04/11 05:10:13;;;;;;;11.00;10.60;;;3.70;99.90;;;;;;5022796;28;20459;-75
2021/04/11 05:12:46;;;;;;;12.50;12.00;;;3.70;99.90;;;;;;5017944;28;20685;-76
2021/04/11 05:15:16;;;;;;;12.20;11.70;;;3.70;99.90;;;;;;5022407;28;20464;-74
2021/04/11 05:17:46;;;;;;;12.57;12.07;;;3.60;99.90;;;;;;5021526;28;20467;-76
2021/04/11 05:20:17;;;;;;;11.90;11.43;;;3.70;99.90;;;;;;5024081;28;20465;-73
2021/04/11 05:22:48;;;;;;;11.87;11.37;;;3.70;99.90;;;;;;5018969;28;20472;-73
2021/04/11 05:25:20;;;;;;;12.43;11.93;;;3.70;99.90;;;;;;5023794;28;20468;-72
2021/04/11 05:27:54;;;;;;;13.67;13.07;;;3.70;99.90;;;;;;5020736;28;20815;-75
2021/04/11 05:30:26;;;;;;;13.20;12.70;;;3.70;99.90;;;;;;5021395;28;20492;-73
2021/04/11 05:32:54;;;;;;;14.87;14.27;;;3.70;99.90;;;;;;5023639;28;20492;-74
2021/04/11 05:35:24;;;;;;;14.60;14.00;;;3.70;99.90;;;;;;5027279;28;20459;-75
2021/04/11 05:38:20;;;;;;;14.40;13.80;;;3.60;99.90;;;;;;5016309;28;20461;-76
2021/04/11 05:40:53;;;;;;;13.90;13.30;;;3.60;99.90;;;;;;5022935;28;20452;-76
2021/04/11 05:43:26;;;;;;;13.57;12.97;;;3.60;99.90;;;;;;5018823;28;20496;-78
2021/04/11 05:46:01;;;;;;;13.37;12.87;;;3.60;99.90;;;;;;5020114;28;20903;-77
2021/04/11 05:48:34;;;;;;;13.20;12.70;;;3.70;99.90;;;;;;5016241;28;21008;-78
2021/04/11 05:51:04;;;;;;;13.13;12.63;;;3.70;99.90;;;;;;5017400;28;20461;-75
2021/04/11 05:53:36;;;;;;;13.90;13.30;;;3.60;99.90;;;;;;5014719;28;20468;-75
2021/04/11 05:56:07;;;;;;;13.47;12.97;;;3.60;99.90;;;;;;5016406;28;20467;-77
2021/04/11 05:58:41;;;;;;;14.30;13.70;;;3.60;99.90;;;;;;5022694;28;20456;-75
2021/04/11 06:01:11;;;;;;;13.23;12.73;;;3.60;99.90;;;;;;5022972;28;20464;-78
2021/04/11 06:03:44;;;;;;;14.30;13.70;;;3.80;99.90;;;;;;5015279;28;20485;-75
2021/04/11 06:06:18;;;;;;;14.27;13.67;;;3.80;99.90;;;;;;5020941;28;20460;-77
2021/04/11 06:08:52;;;;;;;13.90;13.30;;;3.80;99.90;;;;;;5021494;28;21788;-76
2021/04/11 06:11:24;;;;;;;14.07;13.47;;;3.70;99.90;;;;;;5018252;28;20461;-77
2021/04/11 06:13:57;;;;;;;14.57;13.97;;;3.70;99.90;;;;;;5025457;28;20456;-78
2021/04/11 06:16:27;;;;;;;13.97;13.37;;;3.70;99.90;;;;;;5020261;28;20967;-75
2021/04/11 06:18:55;;;;;;;13.87;13.27;;;3.80;99.90;;;;;;5022386;28;20993;-76
2021/04/11 06:21:29;;;;;;;14.53;13.93;;;3.70;99.90;;;;;;5019698;28;20493;-80
2021/04/11 06:24:02;;;;;;;14.40;13.80;;;3.80;99.90;;;;;;5023134;28;20488;-78
2021/04/11 06:26:37;;;;;;;14.00;13.40;;;3.70;99.90;;;;;;5022618;28;20515;-77
2021/04/11 06:29:11;;;;;;;13.87;13.27;;;3.70;99.90;;;;;;5022305;28;20594;-76
2021/04/11 06:31:43;;;;;;;13.37;12.83;;;3.80;99.90;;;;;;5021320;28;20485;-75
2021/04/11 06:34:15;;;;;;;13.90;13.30;;;3.80;99.90;;;;;;5026788;28;20476;-78
2021/04/11 06:36:44;;;;;;;12.83;12.33;;;3.80;99.90;;;;;;5022278;28;20471;-77
2021/04/11 06:39:17;;;;;;;13.93;13.33;;;3.70;99.90;;;;;;5021757;28;20488;-75
2021/04/11 06:42:19;;;;;;;14.10;13.50;;;3.70;99.90;;;;;;5025689;28;20465;-75
2021/04/11 06:45:09;;;;;;;13.27;12.77;;;3.70;99.90;;;;;;5019304;28;20499;-74
2021/04/11 06:48:01;;;;;;;13.03;12.53;;;3.70;99.90;;;;;;5021552;28;20469;-75
2021/04/11 06:50:39;;;;;;;13.37;12.87;;;3.70;99.90;;;;;;5022654;28;20500;-77
2021/04/11 06:53:36;;;;;;;14.40;13.80;;;3.60;99.90;;;;;;5025436;28;20469;-76
2021/04/11 06:56:30;;;;;;;13.70;13.10;;;3.60;99.90;;;;;;5014386;28;20505;-75
2021/04/11 06:59:09;;;;;;;14.13;13.53;;;3.60;99.90;;;;;;5028683;28;20464;-78
2021/04/11 07:02:21;;;;;;;13.80;13.20;;;3.60;99.90;;;;;;5024120;28;20835;-75
2021/04/11 07:05:02;;;;;;;13.80;13.20;;;3.60;99.90;;;;;;5016785;28;20488;-76
2021/04/11 07:08:01;;;;;;;13.13;12.63;;;3.60;99.90;;;;;;5011522;28;20522;-74
2021/04/11 07:10:40;;;;;;;13.10;12.60;;;3.60;99.90;;;;;;5016385;28;20488;-75
2021/04/11 07:13:39;;;;;;;13.20;12.70;;;3.60;99.90;;;;;;5020315;28;20876;-80
2021/04/11 07:16:39;;;;;;;13.33;12.83;;;3.60;99.90;;;;;;5019027;28;20956;-77
2021/04/11 07:19:30;;;;;;;13.47;12.97;;;3.60;99.90;;;;;;5015918;28;20847;-76
2021/04/11 07:22:30;;;;;;;12.97;12.47;;;3.60;99.90;;;;;;5018917;28;20836;-79
2021/04/11 07:25:21;;;;;;;13.83;13.23;;;3.70;99.90;;;;;;5024708;28;20496;-79
2021/04/11 07:28:03;;;;;;;13.80;13.20;;;3.80;99.90;;;;;;5012627;28;20457;-78
2021/04/11 07:30:40;;;;;;;13.67;13.10;;;3.80;99.90;;;;;;5009727;28;20966;-77
2021/04/11 07:33:37;;;;;;;13.80;13.20;;;3.70;99.90;;;;;;5011479;28;20499;-79
2021/04/11 07:36:29;;;;;;;13.77;13.17;;;3.80;99.90;;;;;;5010907;28;20465;-78
2021/04/11 07:39:09;;;;;;;13.97;13.37;;;3.80;99.90;;;;;;5011303;28;20615;-78
2021/04/11 07:42:12;;;;;;;13.50;13.00;;;3.80;99.90;;;;;;5016740;28;20475;-76
2021/04/11 07:45:03;;;;;;;13.13;12.63;;;3.80;99.90;;;;;;5019613;28;20492;-74
2021/04/11 07:48:00;;;;;;;12.97;12.47;;;3.80;99.90;;;;;;5014276;28;20602;-76
2021/04/11 07:50:36;;;;;;;13.07;12.57;;;3.90;99.90;;;;;;5017217;28;20708;-77
2021/04/11 07:53:33;;;;;;;13.77;13.17;;;3.90;99.90;;;;;;5013210;28;21035;-77
2021/04/11 07:56:13;;;;;;;13.80;13.20;;;3.90;99.90;;;;;;5013015;28;20500;-74
2021/04/11 07:59:03;;;;;;;13.63;13.03;;;3.90;99.90;;;;;;5019248;28;20461;-78
2021/04/11 08:01:51;;;;;;;13.77;13.17;;;3.90;99.90;;;;;;5016344;28;20481;-75
2021/04/11 08:04:40;;;;;;;13.83;13.23;;;3.90;99.90;;;;;;5009718;28;20488;-75
2021/04/11 08:07:32;;;;;;;14.70;14.10;;;4.00;99.90;;;;;;5011656;28;20967;-77
2021/04/11 08:10:12;;;;;;;14.43;13.83;;;4.00;99.90;;;;;;5004874;28;20492;-75
2021/04/11 08:12:57;;;;;;;14.77;14.17;;;4.00;99.90;;;;;;5013862;28;20466;-79
2021/04/11 08:15:27;;;;;;;15.67;14.97;;;4.00;99.90;;;;;;5015852;28;20493;-78
2021/04/11 08:18:12;;;;;;;15.40;14.70;;;4.00;99.90;;;;;;5013817;28;20554;-79
2021/04/11 08:21:01;;;;;;;15.30;14.60;;;4.00;99.90;;;;;;5019220;28;20549;-78
2021/04/11 08:23:53;;;;;;;15.40;14.70;;;4.10;99.90;;;;;;5005957;28;20583;-77
2021/04/11 08:26:35;;;;;;;15.80;15.10;;;4.00;99.90;;;;;;5016734;28;20465;-76
2021/04/11 08:29:38;;;;;;;14.57;13.97;;;4.00;99.90;;;;;;5014235;28;20474;-76
2021/04/11 08:32:27;;;;;;;14.63;14.03;;;4.10;99.90;;;;;;5015610;28;20487;-77
2021/04/11 08:35:29;;;;;;;14.33;13.73;;;4.10;99.90;;;;;;5011198;28;20461;-79
2021/04/11 08:38:37;;;;;;;14.83;14.23;;;4.10;99.90;;;;;;5007754;28;20471;-77
2021/04/11 08:41:38;;;;;;;14.33;13.73;;;4.10;99.90;;;;;;5014526;28;20464;-77
2021/04/11 08:44:16;;;;;;;14.23;13.63;;;4.20;99.90;;;;;;5009839;28;20591;-79
2021/04/11 08:46:56;;;;;;;14.50;13.90;;;4.30;99.90;;;;;;5008396;28;20473;-81
2021/04/11 08:49:25;;;;;;;15.00;14.33;;;4.30;99.90;;;;;;5013449;28;20460;-77
2021/04/11 08:52:01;;;;;;;14.57;13.97;;;4.40;99.90;;;;;;5018850;28;20465;-79
2021/04/11 08:54:47;;;;;;;14.47;13.87;;;4.40;99.90;;;;;;5007229;28;20476;-75
2021/04/11 08:57:31;;;;;;;15.10;14.40;;;4.30;99.90;;;;;;5010911;28;20465;-79
2021/04/11 09:00:06;;;;;;;14.97;14.27;;;4.30;99.90;;;;;;5010942;28;20613;-80
2021/04/11 09:02:46;;;;;;;15.17;14.50;;;4.30;99.90;;;;;;5010887;28;20534;-76
2021/04/11 09:05:26;;;;;;;14.67;14.07;;;4.40;99.90;;;;;;5011810;28;20858;-74
2021/04/11 09:08:07;;;;;;;14.10;13.50;;;4.40;99.90;;;;;;5006806;28;20464;-76
2021/04/11 09:10:48;;;;;;;14.03;13.43;;;4.30;99.90;;;;;;5013543;28;20468;-78
2021/04/11 09:13:25;;;;;;;13.93;13.33;;;4.30;99.90;;;;;;5017585;28;20816;-76
2021/04/11 09:16:00;;;;;;;14.37;13.77;;;4.40;99.90;;;;;;5008556;28;20961;-75
2021/04/11 09:18:54;;;;;;;14.43;13.83;;;4.30;99.90;;;;;;5014072;28;20494;-78
2021/04/11 09:21:48;;;;;;;14.03;13.43;;;4.20;99.90;;;;;;5019067;28;20461;-79
2021/04/11 09:24:21;;;;;;;15.30;14.60;;;4.30;99.90;;;;;;5016133;28;21029;-79
2021/04/11 09:27:18;;;;;;;14.67;14.07;;;4.30;99.90;;;;;;5013269;28;20465;-75
2021/04/11 09:29:53;;;;;;;14.90;14.27;;;4.30;99.90;;;;;;5009395;28;20492;-78
2021/04/11 09:33:02;;;;;;;15.40;14.70;;;4.30;99.90;;;;;;5005789;28;20504;-77
2021/04/11 09:35:37;;;;;;;15.07;14.37;;;4.40;99.90;;;;;;4926798;29;20461;-77
2021/04/11 09:38:14;;;;;;;14.70;14.10;;;4.50;99.90;;;;;;5001793;28;20631;-77
2021/04/11 09:40:51;;;;;;;14.33;13.73;;;4.50;99.90;;;;;;5007905;28;20461;-79
2021/04/11 09:43:47;;;;;;;14.43;13.83;;;4.50;99.90;;;;;;5007192;28;20465;-76
2021/04/11 09:46:33;;;;;;;14.73;14.13;;;4.40;99.90;;;;;;5010343;28;20465;-80
2021/04/11 09:49:37;;;;;;;15.00;14.40;;;4.40;99.90;;;;;;5010502;28;20468;-78
2021/04/11 09:52:49;;;;;;;14.70;14.10;;;4.60;99.90;;;;;;5006605;28;20472;-79
2021/04/11 09:55:23;;;;;;;14.70;14.10;;;4.40;99.90;;;;;;4962150;28;20462;-78
2021/04/11 09:58:20;;;;;;;14.87;14.27;;;4.30;99.90;;;;;;5001332;28;20472;-76
2021/04/11 10:00:55;;;;;;;14.87;14.20;;;4.30;99.90;;;;;;5014415;28;20484;-78
2021/04/11 10:03:36;;;;;;;14.70;14.10;;;4.40;99.90;;;;;;5010306;28;20496;-78
2021/04/11 10:06:20;;;;;;;15.70;15.00;;;4.40;99.90;;;;;;5011052;28;20460;-77
2021/04/11 10:09:10;;;;;;;16.03;15.33;;;4.40;99.90;;;;;;5014958;28;20890;-75
2021/04/11 10:11:54;;;;;;;15.47;14.77;;;4.40;99.90;;;;;;5015816;28;20464;-77
2021/04/11 10:14:36;;;;;;;15.77;15.07;;;4.40;99.90;;;;;;5013998;28;20980;-76
2021/04/11 10:17:14;;;;;;;15.70;15.00;;;4.40;99.90;;;;;;5011966;28;20562;-78
2021/04/11 10:19:50;;;;;;;15.87;15.17;;;4.50;99.90;;;;;;5014250;28;20831;-80
2021/04/11 10:22:37;;;;;;;16.00;15.20;;;4.50;99.90;;;;;;5015243;28;20491;-78
2021/04/11 10:25:15;;;;;;;16.17;15.37;;;4.50;99.90;;;;;;5014637;28;20488;-81
2021/04/11 10:27:50;;;;;;;16.47;15.67;;;4.50;99.90;;;;;;5014125;28;20460;-81
2021/04/11 10:30:18;;;;;;;16.60;15.80;;;4.40;99.90;;;;;;5013612;28;20497;-80
2021/04/11 10:32:50;;;;;;;15.80;15.10;;;4.40;99.90;;;;;;5012424;28;20543;-77
2021/04/11 10:35:24;;;;;;;15.70;15.00;;;4.40;99.90;;;;;;5012870;28;20506;-79
2021/04/11 10:37:55;;;;;;;16.50;15.70;;;4.30;99.90;;;;;;5012668;28;20471;-80
2021/04/11 10:40:42;;;;;;;15.30;14.60;;;4.30;99.90;;;;;;5014533;28;20959;-80
2021/04/11 10:43:20;;;;;;;15.77;15.07;;;4.30;99.90;;;;;;5014723;28;20467;-77
2021/04/11 10:45:51;;;;;;;15.67;14.97;;;4.30;99.90;;;;;;5013533;28;20973;-79
2021/04/11 10:48:40;;;;;;;15.33;14.63;;;4.40;99.90;;;;;;5013960;28;20482;-78
2021/04/11 10:51:52;;;;;;;15.77;15.07;;;4.50;99.90;;;;;;5016222;28;20460;-79
2021/04/11 10:54:33;;;;;;;15.87;15.13;;;4.50;99.90;;;;;;5017285;28;20460;-79
2021/04/11 10:57:24;;;;;;;15.47;14.77;;;4.50;99.90;;;;;;5015816;28;20470;-79
2021/04/11 11:00:04;;;;;;;15.37;14.67;;;4.60;99.90;;;;;;5018842;28;20544;-76
2021/04/11 11:03:07;;;;;;;16.30;15.50;;;4.60;99.90;;;;;;5017608;28;20828;-78
2021/04/11 11:05:46;;;;;;;16.17;15.37;;;4.70;99.90;;;;;;5000827;28;20580;-76
2021/04/11 11:08:27;;;;;;;16.10;15.30;;;4.70;99.90;;;;;;5016129;28;20464;-80
2021/04/11 11:11:10;;;;;;;16.37;15.57;;;4.80;99.90;;;;;;5018009;28;20461;-78
2021/04/11 11:13:57;;;;;;;16.20;15.40;;;4.90;99.90;;;;;;5016884;28;21016;-80
2021/04/11 11:16:56;;;;;;;16.10;15.30;;;5.00;99.90;;;;;;5017706;28;20465;-78
2021/04/11 11:19:42;;;;;;;16.00;15.20;;;4.90;99.90;;;;;;5016930;28;20997;-78
2021/04/11 11:22:38;;;;;;;16.90;16.00;;;4.70;99.90;;;;;;5016594;28;20518;-76
2021/04/11 11:25:30;;;;;;;16.23;15.43;;;4.70;99.90;;;;;;5016167;28;20492;-80
2021/04/11 11:28:51;;;;;;;15.73;15.03;;;4.60;99.90;;;;;;5016270;28;20980;-78
2021/04/11 11:31:30;;;;;;;15.53;14.83;;;4.70;99.90;;;;;;5009926;28;20485;-80
2021/04/11 11:34:16;;;;;;;15.83;15.13;;;4.90;99.90;;;;;;5011177;28;20460;-76
2021/04/11 11:36:46;;;;;;;15.27;14.57;;;5.10;99.90;;;;;;5018211;28;20989;-79
2021/04/11 11:39:23;;;;;;;15.27;14.57;;;5.40;99.90;;;;;;5015227;28;20466;-76
2021/04/11 11:42:01;;;;;;;15.43;14.73;;;5.70;99.90;;;;;;5015339;28;20460;-78
2021/04/11 11:44:32;;;;;;;15.83;15.13;;;5.90;99.90;;;;;;5016981;28;20489;-78
2021/04/11 11:47:06;;;;;;;15.33;14.63;;;5.80;99.90;;;;;;5017763;28;20470;-76
2021/04/11 11:49:41;;;;;;;16.83;16.03;;;5.60;99.90;;;;;;5016662;28;20507;-78
2021/04/11 11:52:11;;;;;;;15.83;15.03;;;5.50;99.90;;;;;;5016237;28;20875;-76
2021/04/11 11:54:42;;;;;;;16.30;15.50;;;5.30;99.90;;;;;;5015650;28;20832;-77
2021/04/11 11:57:18;;;;;;;16.50;15.70;;;5.30;99.90;;;;;;5017874;28;20469;-77
2021/04/11 11:59:49;;;;;;;15.53;14.83;;;5.20;99.90;;;;;;5016347;28;20514;-75
2021/04/11 12:02:27;;;;;;;15.87;15.07;;;5.20;99.90;;;;;;5017285;28;20457;-76
2021/04/11 12:05:02;;;;;;;16.43;15.63;;;5.20;99.90;;;;;;5017223;28;20551;-74
2021/04/11 12:07:33;;;;;;;16.73;15.93;;;5.20;99.90;;;;;;5016732;28;20472;-76
2021/04/11 12:10:26;;;;;;;16.33;15.53;;;5.20;99.90;;;;;;5016355;28;20476;-77
2021/04/11 12:13:04;;;;;;;16.17;15.37;;;5.50;99.90;;;;;;5015550;28;21038;-75
2021/04/11 12:15:36;;;;;;;16.30;15.50;;;5.80;99.90;;;;;;5015168;28;20514;-76
2021/04/11 12:18:07;;;;;;;16.73;15.93;;;6.20;99.90;;;;;;5017634;28;20964;-77
2021/04/11 12:20:40;;;;;;;17.20;16.40;;;6.40;99.90;;;;;;5016038;28;20461;-77
2021/04/11 12:23:13;;;;;;;17.33;16.43;;;6.70;99.90;;;;;;5016277;28;20461;-77
2021/04/11 12:25:41;;;;;;;17.77;16.87;;;6.90;99.90;;;;;;5015079;28;20889;-76
2021/04/11 12:28:25;;;;;;;17.90;17.00;;;7.00;99.90;;;;;;5016139;28;20540;-76
2021/04/11 12:30:53;;;;;;;18.53;17.53;;;7.10;99.90;;;;;;5015841;28;20486;-75
2021/04/11 12:33:30;;;;;;;17.07;16.20;;;6.90;99.90;;;;;;5016384;28;20496;-74
2021/04/11 12:36:07;;;;;;;17.60;16.70;;;7.00;99.90;;;;;;5015394;28;20474;-75
2021/04/11 12:38:41;;;;;;;18.43;17.53;;;7.20;99.90;;;;;;5013253;28;20960;-76
2021/04/11 12:41:16;;;;;;;17.77;16.87;;;7.20;99.90;;;;;;5014828;28;20799;-77
2021/04/11 12:43:57;;;;;;;17.83;16.93;;;7.10;99.90;;;;;;5011500;28;20504;-77
2021/04/11 12:46:30;;;;;;;18.00;17.10;;;7.00;99.90;;;;;;5013715;28;20473;-75
2021/04/11 12:49:05;;;;;;;18.93;17.93;;;7.00;99.90;;;;;;5014371;28;20961;-75
2021/04/11 12:51:39;;;;;;;19.73;18.67;;;6.80;99.90;;;;;;5015363;28;21303;-73
2021/04/11 12:54:12;;;;;;;21.30;19.80;;;6.50;99.90;;;;;;5015563;28;20457;-75
2021/04/11 12:56:42;;;;;;;22.10;20.60;;;6.50;99.90;;;;;;5012540;28;20474;-74
2021/04/11 12:59:17;;;;;;;21.80;20.40;;;6.50;99.90;;;;;;5006567;28;20474;-73
2021/04/11 13:01:46;;;;;;;21.03;19.83;;;6.70;99.90;;;;;;5012342;28;20461;-74
2021/04/11 13:04:21;;;;;;;20.33;19.13;;;6.70;99.90;;;;;;5015914;28;20493;-74
2021/04/11 13:06:53;;;;;;;19.87;18.77;;;6.50;99.90;;;;;;5015313;28;20469;-74
2021/04/11 13:09:42;;;;;;;19.10;18.10;;;6.30;99.90;;;;;;5013307;28;20497;-74
2021/04/11 13:12:21;;;;;;;20.60;19.20;;;6.20;99.90;;;;;;5014455;28;20473;-75
2021/04/11 13:14:59;;;;;;;20.13;18.93;;;6.10;99.90;;;;;;5015493;28;20977;-72
2021/04/11 13:17:35;;;;;;;19.77;18.57;;;6.10;99.90;;;;;;5013815;28;20461;-74
2021/04/11 13:20:09;;;;;;;19.30;18.20;;;6.00;99.90;;;;;;5013490;28;20481;-74
2021/04/11 13:22:46;;;;;;;19.90;18.80;;;6.00;99.90;;;;;;5014951;28;20479;-75
2021/04/11 13:25:18;;;;;;;18.50;17.50;;;5.90;99.90;;;;;;5011865;28;20500;-73